createdAt,value
2024-03-29T00:00:24.662Z,316.00
2024-03-29T00:01:25.543Z,318.00
2024-03-29T00:02:28.318Z,317.00
2024-03-29T00:03:27.231Z,320.00
2024-03-29T00:04:28.114Z,320.00
2024-03-29T00:05:29.032Z,317.00
2024-03-29T00:06:29.906Z,319.00
2024-03-29T00:07:30.807Z,318.00
2024-03-29T00:08:31.674Z,316.00
2024-03-29T00:09:32.555Z,318.00
2024-03-29T00:10:33.463Z,320.00
2024-03-29T00:11:34.371Z,316.00
2024-03-29T00:12:35.227Z,315.00
2024-03-29T00:13:36.116Z,317.00
2024-03-29T00:14:36.992Z,320.00
2024-03-29T00:15:37.892Z,321.00
2024-03-29T00:16:38.773Z,320.00
2024-03-29T00:17:39.659Z,322.00
2024-03-29T00:18:40.546Z,321.00
2024-03-29T00:19:41.425Z,325.00
2024-03-29T00:20:42.325Z,323.00
2024-03-29T00:21:43.215Z,321.00
2024-03-29T00:22:44.107Z,325.00
2024-03-29T00:23:44.973Z,323.00
2024-03-29T00:24:45.855Z,319.00
2024-03-29T00:25:46.758Z,322.00
2024-03-29T00:26:47.641Z,317.00
2024-03-29T00:27:48.540Z,319.00
2024-03-29T00:28:49.406Z,321.00
2024-03-29T00:29:50.289Z,322.00
2024-03-29T00:30:51.189Z,320.00
2024-03-29T00:31:52.075Z,321.00
2024-03-29T00:32:52.961Z,320.00
2024-03-29T00:33:53.838Z,317.00
2024-03-29T00:34:54.735Z,314.00
2024-03-29T00:35:55.625Z,320.00
2024-03-29T00:36:56.506Z,322.00
2024-03-29T00:37:57.442Z,317.00
2024-03-29T00:38:58.284Z,315.00
2024-03-29T00:39:59.166Z,310.00
2024-03-29T00:41:00.072Z,316.00
2024-03-29T00:42:00.958Z,314.00
2024-03-29T00:43:01.834Z,317.00
2024-03-29T00:44:02.721Z,320.00
2024-03-29T00:45:03.608Z,320.00
2024-03-29T00:46:04.505Z,317.00
2024-03-29T00:47:05.417Z,319.00
2024-03-29T00:48:06.314Z,322.00
2024-03-29T00:49:07.191Z,319.00
2024-03-29T00:50:08.066Z,317.00
2024-03-29T00:51:08.989Z,314.00
2024-03-29T00:52:09.855Z,314.00
2024-03-29T00:53:10.753Z,314.00
2024-03-29T00:54:11.620Z,316.00
2024-03-29T00:55:12.614Z,313.00
2024-03-29T00:56:13.556Z,313.00
2024-03-29T00:57:14.441Z,315.00
2024-03-29T00:58:15.326Z,315.00
2024-03-29T00:59:16.207Z,311.00
2024-03-29T01:00:19.631Z,315.00
2024-03-29T01:01:17.837Z,317.00
2024-03-29T01:02:18.721Z,316.00
2024-03-29T01:03:19.601Z,316.00
2024-03-29T01:04:20.487Z,318.00
2024-03-29T01:05:21.373Z,318.00
2024-03-29T01:06:22.268Z,315.00
2024-03-29T01:07:23.153Z,312.00
2024-03-29T01:08:24.045Z,314.00
2024-03-29T01:09:24.923Z,309.00
2024-03-29T01:10:25.808Z,310.00
2024-03-29T01:11:26.706Z,311.00
2024-03-29T01:12:27.587Z,308.00
2024-03-29T01:13:28.480Z,311.00
2024-03-29T01:14:29.366Z,310.00
2024-03-29T01:15:30.238Z,310.00
2024-03-29T01:16:31.162Z,307.00
2024-03-29T01:17:32.050Z,310.00
2024-03-29T01:18:32.937Z,314.00
2024-03-29T01:19:33.805Z,308.00
2024-03-29T01:20:34.689Z,305.00
2024-03-29T01:21:35.595Z,302.00
2024-03-29T01:22:36.552Z,301.00
2024-03-29T01:23:37.401Z,306.00
2024-03-29T01:24:38.272Z,309.00
2024-03-29T01:25:39.158Z,308.00
2024-03-29T01:26:40.055Z,313.00
2024-03-29T01:27:40.939Z,311.00
2024-03-29T01:28:41.829Z,313.00
2024-03-29T01:29:42.707Z,314.00
2024-03-29T01:30:43.592Z,316.00
2024-03-29T01:31:44.494Z,321.00
2024-03-29T01:32:45.380Z,321.00
2024-03-29T01:33:46.272Z,320.00
2024-03-29T01:34:47.147Z,324.00
2024-03-29T01:35:48.031Z,321.00
2024-03-29T01:36:48.931Z,318.00
2024-03-29T01:37:49.814Z,319.00
2024-03-29T01:38:50.716Z,317.00
2024-03-29T01:39:51.581Z,319.00
2024-03-29T01:40:52.465Z,318.00
2024-03-29T01:41:53.372Z,317.00
2024-03-29T01:42:54.254Z,319.00
2024-03-29T01:43:55.132Z,322.00
2024-03-29T01:44:56.015Z,319.00
2024-03-29T01:45:56.898Z,320.00
2024-03-29T01:46:57.807Z,320.00
2024-03-29T01:47:58.696Z,318.00
2024-03-29T01:48:59.574Z,319.00
2024-03-29T01:50:00.489Z,319.00
2024-03-29T01:51:01.404Z,314.00
2024-03-29T01:52:02.289Z,313.00
2024-03-29T01:53:03.177Z,316.00
2024-03-29T01:54:04.065Z,319.00
2024-03-29T01:55:04.933Z,318.00
2024-03-29T01:56:05.825Z,318.00
2024-03-29T01:57:06.718Z,320.00
2024-03-29T01:58:07.603Z,321.00
2024-03-29T02:00:56.992Z,316.00
2024-03-29T02:01:57.866Z,316.00
2024-03-29T02:02:58.783Z,319.00
2024-03-29T02:03:59.665Z,319.00
2024-03-29T02:05:00.618Z,316.00
2024-03-29T02:06:01.465Z,319.00
2024-03-29T02:07:02.352Z,323.00
2024-03-29T02:08:03.267Z,324.00
2024-03-29T02:09:04.130Z,322.00
2024-03-29T02:10:05.013Z,322.00
2024-03-29T02:11:05.918Z,322.00
2024-03-29T02:12:06.775Z,321.00
2024-03-29T02:13:07.694Z,322.00
2024-03-29T02:14:08.585Z,320.00
2024-03-29T02:16:49.400Z,315.00
2024-03-29T02:17:50.272Z,316.00
2024-03-29T02:18:51.195Z,319.00
2024-03-29T02:19:52.073Z,321.00
2024-03-29T02:20:52.974Z,322.00
2024-03-29T02:21:53.855Z,327.00
2024-03-29T02:22:54.720Z,332.00
2024-03-29T02:23:55.623Z,334.00
2024-03-29T02:24:56.519Z,333.00
2024-03-29T02:25:57.387Z,335.00
2024-03-29T02:26:58.269Z,331.00
2024-03-29T02:27:59.163Z,327.00
2024-03-29T02:29:00.058Z,326.00
2024-03-29T02:30:00.950Z,324.00
2024-03-29T02:31:01.824Z,329.00
2024-03-29T02:32:02.726Z,332.00
2024-03-29T02:33:03.609Z,328.00
2024-03-29T02:34:04.500Z,325.00
2024-03-29T02:35:05.402Z,325.00
2024-03-29T02:36:06.252Z,324.00
2024-03-29T02:37:07.143Z,323.00
2024-03-29T02:38:08.084Z,325.00
2024-03-29T02:39:08.966Z,329.00
2024-03-29T02:40:09.842Z,329.00
2024-03-29T02:41:10.722Z,330.00
2024-03-29T02:42:11.612Z,331.00
2024-03-29T02:43:12.497Z,332.00
2024-03-29T02:44:13.427Z,332.00
2024-03-29T02:45:14.306Z,330.00
2024-03-29T02:46:15.192Z,329.00
2024-03-29T02:47:16.091Z,327.00
2024-03-29T02:48:16.962Z,325.00
2024-03-29T02:49:17.856Z,325.00
2024-03-29T02:50:18.736Z,329.00
2024-03-29T02:51:19.619Z,334.00
2024-03-29T02:52:20.504Z,331.00
2024-03-29T02:53:21.385Z,326.00
2024-03-29T02:54:22.287Z,325.00
2024-03-29T02:55:23.167Z,324.00
2024-03-29T02:56:24.055Z,324.00
2024-03-29T02:57:24.932Z,324.00
2024-03-29T02:58:25.816Z,325.00
2024-03-29T02:59:26.714Z,327.00
2024-03-29T03:00:27.595Z,330.00
2024-03-29T03:01:28.477Z,328.00
2024-03-29T03:02:29.377Z,326.00
2024-03-29T03:03:30.288Z,325.00
2024-03-29T03:04:31.140Z,325.00
2024-03-29T03:05:32.028Z,330.00
2024-03-29T03:06:32.916Z,327.00
2024-03-29T03:07:33.794Z,328.00
2024-03-29T03:08:34.673Z,325.00
2024-03-29T03:09:35.574Z,321.00
2024-03-29T03:10:36.455Z,322.00
2024-03-29T03:11:37.354Z,324.00
2024-03-29T03:12:38.226Z,323.00
2024-03-29T03:13:39.102Z,321.00
2024-03-29T03:14:40.003Z,319.00
2024-03-29T03:15:40.885Z,322.00
2024-03-29T03:16:41.772Z,329.00
2024-03-29T03:17:42.661Z,325.00
2024-03-29T03:18:43.543Z,324.00
2024-03-29T03:19:44.442Z,327.00
2024-03-29T03:20:45.323Z,323.00
2024-03-29T03:21:46.206Z,326.00
2024-03-29T03:22:47.087Z,323.00
2024-03-29T03:23:47.971Z,324.00
2024-03-29T03:24:48.869Z,322.00
2024-03-29T03:25:49.760Z,322.00
2024-03-29T03:26:50.643Z,323.00
2024-03-29T03:27:51.515Z,321.00
2024-03-29T03:28:52.397Z,324.00
2024-03-29T03:29:53.303Z,325.00
2024-03-29T03:30:54.180Z,322.00
2024-03-29T03:31:55.063Z,322.00
2024-03-29T03:32:55.951Z,322.00
2024-03-29T03:33:56.824Z,321.00
2024-03-29T03:34:57.724Z,321.00
2024-03-29T03:35:58.607Z,320.00
2024-03-29T03:36:59.491Z,323.00
2024-03-29T03:38:00.369Z,322.00
2024-03-29T03:39:01.249Z,323.00
2024-03-29T03:40:02.209Z,318.00
2024-03-29T03:41:03.082Z,321.00
2024-03-29T03:42:03.945Z,321.00
2024-03-29T03:43:04.825Z,318.00
2024-03-29T03:44:05.730Z,316.00
2024-03-29T03:45:06.606Z,315.00
2024-03-29T03:46:07.492Z,311.00
2024-03-29T03:47:08.418Z,310.00
2024-03-29T03:48:09.283Z,312.00
2024-03-29T03:49:10.158Z,315.00
2024-03-29T03:50:11.064Z,314.00
2024-03-29T03:51:11.928Z,316.00
2024-03-29T03:52:12.811Z,316.00
2024-03-29T03:53:13.691Z,320.00
2024-03-29T03:54:14.576Z,315.00
2024-03-29T03:55:15.477Z,317.00
2024-03-29T03:56:16.356Z,315.00
2024-03-29T03:57:17.253Z,314.00
2024-03-29T03:58:18.121Z,314.00
2024-03-29T03:59:19.008Z,311.00
2024-03-29T04:00:20.280Z,312.00
2024-03-29T04:01:20.618Z,312.00
2024-03-29T04:02:21.506Z,312.00
2024-03-29T04:03:22.388Z,311.00
2024-03-29T04:04:23.272Z,313.00
2024-03-29T04:05:24.171Z,311.00
2024-03-29T04:06:25.068Z,317.00
2024-03-29T04:07:25.931Z,316.00
2024-03-29T04:08:26.814Z,316.00
2024-03-29T04:09:27.701Z,316.00
2024-03-29T04:10:28.599Z,320.00
2024-03-29T04:11:29.481Z,317.00
2024-03-29T04:12:30.361Z,315.00
2024-03-29T04:13:31.247Z,315.00
2024-03-29T04:14:32.132Z,315.00
2024-03-29T04:15:33.030Z,311.00
2024-03-29T04:16:33.932Z,313.00
2024-03-29T04:17:34.810Z,315.00
2024-03-29T04:18:35.695Z,316.00
2024-03-29T04:19:36.561Z,315.00
2024-03-29T04:20:37.474Z,314.00
2024-03-29T04:21:38.359Z,313.00
2024-03-29T04:22:39.242Z,314.00
2024-03-29T04:23:40.124Z,317.00
2024-03-29T04:24:41.007Z,318.00
2024-03-29T04:25:41.903Z,320.00
2024-03-29T04:26:42.800Z,321.00
2024-03-29T04:27:43.672Z,323.00
2024-03-29T04:28:44.552Z,328.00
2024-03-29T04:29:45.444Z,329.00
2024-03-29T04:30:46.339Z,326.00
2024-03-29T04:31:47.233Z,330.00
2024-03-29T04:32:48.106Z,324.00
2024-03-29T04:33:49.000Z,325.00
2024-03-29T04:34:49.880Z,331.00
2024-03-29T04:35:50.771Z,331.00
2024-03-29T04:36:51.661Z,326.00
2024-03-29T04:37:52.566Z,326.00
2024-03-29T04:38:53.448Z,322.00
2024-03-29T04:39:54.330Z,321.00
2024-03-29T04:40:55.249Z,318.00
2024-03-29T04:41:56.113Z,314.00
2024-03-29T04:42:56.995Z,317.00
2024-03-29T04:43:57.883Z,320.00
2024-03-29T04:44:58.763Z,320.00
2024-03-29T04:45:59.677Z,318.00
2024-03-29T04:47:00.594Z,318.00
2024-03-29T04:48:01.451Z,316.00
2024-03-29T04:49:02.354Z,317.00
2024-03-29T04:50:03.253Z,315.00
2024-03-29T04:51:04.128Z,315.00
2024-03-29T04:52:05.003Z,315.00
2024-03-29T04:53:05.876Z,314.00
2024-03-29T04:54:06.803Z,314.00
2024-03-29T04:55:07.686Z,315.00
2024-03-29T04:56:08.594Z,317.00
2024-03-29T04:57:09.474Z,316.00
2024-03-29T04:58:10.377Z,318.00
2024-03-29T04:59:11.297Z,318.00
2024-03-29T05:00:12.156Z,318.00
2024-03-29T05:01:13.057Z,317.00
2024-03-29T05:02:13.949Z,320.00
2024-03-29T05:03:14.817Z,320.00
2024-03-29T05:04:15.705Z,325.00
2024-03-29T05:05:16.581Z,323.00
2024-03-29T05:06:17.476Z,318.00
2024-03-29T05:07:18.362Z,320.00
2024-03-29T05:08:19.254Z,320.00
2024-03-29T05:09:20.123Z,317.00
2024-03-29T05:10:21.003Z,317.00
2024-03-29T05:11:21.910Z,315.00
2024-03-29T05:12:22.785Z,318.00
2024-03-29T05:13:23.668Z,319.00
2024-03-29T05:14:24.551Z,319.00
2024-03-29T05:15:25.439Z,323.00
2024-03-29T05:16:26.332Z,322.00
2024-03-29T05:17:27.241Z,322.00
2024-03-29T05:18:28.094Z,320.00
2024-03-29T05:19:29.004Z,319.00
2024-03-29T05:20:29.862Z,320.00
2024-03-29T05:21:30.761Z,319.00
2024-03-29T05:22:31.640Z,320.00
2024-03-29T05:23:32.545Z,321.00
2024-03-29T05:24:33.426Z,322.00
2024-03-29T05:25:34.318Z,320.00
2024-03-29T05:26:35.210Z,316.00
2024-03-29T05:27:38.710Z,316.00
2024-03-29T05:28:37.023Z,315.00
2024-03-29T05:29:37.914Z,316.00
2024-03-29T05:30:38.791Z,314.00
2024-03-29T05:31:39.698Z,313.00
2024-03-29T05:32:40.574Z,317.00
2024-03-29T05:33:41.452Z,312.00
2024-03-29T05:34:42.350Z,313.00
2024-03-29T05:35:43.219Z,313.00
2024-03-29T05:36:44.118Z,316.00
2024-03-29T05:37:45.000Z,316.00
2024-03-29T05:38:45.883Z,311.00
2024-03-29T05:39:46.762Z,314.00
2024-03-29T05:40:47.659Z,313.00
2024-03-29T05:41:48.625Z,316.00
2024-03-29T05:42:49.528Z,314.00
2024-03-29T05:43:50.384Z,311.00
2024-03-29T05:44:51.270Z,314.00
2024-03-29T05:45:52.151Z,312.00
2024-03-29T05:46:53.052Z,312.00
2024-03-29T05:47:53.929Z,316.00
2024-03-29T05:48:54.811Z,316.00
2024-03-29T05:49:55.709Z,319.00
2024-03-29T05:50:56.579Z,315.00
2024-03-29T05:51:57.489Z,318.00
2024-03-29T05:52:58.353Z,320.00
2024-03-29T05:53:59.234Z,320.00
2024-03-29T05:55:00.166Z,322.00
2024-03-29T05:56:01.003Z,320.00
2024-03-29T05:57:01.906Z,321.00
2024-03-29T05:58:02.787Z,321.00
2024-03-29T05:59:03.678Z,319.00
2024-03-29T06:00:04.571Z,318.00
2024-03-29T06:01:05.489Z,319.00
2024-03-29T06:02:06.347Z,319.00
2024-03-29T06:03:07.228Z,316.00
2024-03-29T06:04:08.110Z,317.00
2024-03-29T06:05:09.013Z,319.00
2024-03-29T06:06:09.874Z,319.00
2024-03-29T06:07:10.804Z,320.00
2024-03-29T06:08:11.731Z,320.00
2024-03-29T06:09:12.582Z,318.00
2024-03-29T06:10:13.476Z,318.00
2024-03-29T06:11:14.367Z,320.00
2024-03-29T06:12:15.255Z,322.00
2024-03-29T06:13:16.132Z,322.00
2024-03-29T06:14:17.016Z,320.00
2024-03-29T06:15:17.896Z,320.00
2024-03-29T06:16:18.784Z,318.00
2024-03-29T06:17:19.674Z,319.00
2024-03-29T06:18:20.565Z,321.00
2024-03-29T06:19:21.438Z,320.00
2024-03-29T06:20:22.340Z,322.00
2024-03-29T06:21:23.201Z,322.00
2024-03-29T06:22:24.099Z,318.00
2024-03-29T06:23:24.982Z,318.00
2024-03-29T06:24:25.865Z,319.00
2024-03-29T06:25:26.749Z,320.00
2024-03-29T06:26:27.629Z,320.00
2024-03-29T06:27:28.530Z,320.00
2024-03-29T06:28:29.414Z,320.00
2024-03-29T06:29:30.306Z,319.00
2024-03-29T06:30:31.181Z,318.00
2024-03-29T06:31:32.057Z,316.00
2024-03-29T06:32:32.953Z,315.00
2024-03-29T06:33:33.836Z,317.00
2024-03-29T06:34:34.717Z,317.00
2024-03-29T06:35:35.676Z,317.00
2024-03-29T06:36:36.543Z,316.00
2024-03-29T06:37:37.443Z,314.00
2024-03-29T06:38:38.321Z,318.00
2024-03-29T06:39:39.203Z,320.00
2024-03-29T06:40:40.085Z,323.00
2024-03-29T06:41:40.971Z,319.00
2024-03-29T06:42:41.866Z,318.00
2024-03-29T06:43:42.758Z,320.00
2024-03-29T06:44:43.628Z,323.00
2024-03-29T06:45:44.511Z,327.00
2024-03-29T06:46:45.393Z,326.00
2024-03-29T06:47:46.379Z,324.00
2024-03-29T06:48:47.263Z,327.00
2024-03-29T06:49:48.150Z,324.00
2024-03-29T06:50:49.092Z,326.00
2024-03-29T06:51:49.928Z,325.00
2024-03-29T06:52:50.845Z,326.00
2024-03-29T06:53:51.460Z,325.00
2024-03-29T06:54:52.338Z,324.00
2024-03-29T06:55:53.220Z,323.00
2024-03-29T06:56:54.107Z,321.00
2024-03-29T06:57:55.002Z,320.00
2024-03-29T06:58:55.883Z,322.00
2024-03-29T06:59:56.771Z,319.00
2024-03-29T07:00:57.665Z,319.00
2024-03-29T07:01:58.530Z,320.00
2024-03-29T07:02:59.427Z,321.00
2024-03-29T07:04:00.308Z,321.00
2024-03-29T07:05:01.195Z,328.00
2024-03-29T07:06:02.125Z,328.00
2024-03-29T07:07:02.956Z,328.00
2024-03-29T07:08:03.863Z,328.00
2024-03-29T07:09:04.735Z,330.00
2024-03-29T07:10:05.635Z,332.00
2024-03-29T07:11:06.507Z,327.00
2024-03-29T07:12:07.382Z,325.00
2024-03-29T07:13:08.284Z,322.00
2024-03-29T07:14:09.228Z,321.00
2024-03-29T07:15:10.082Z,320.00
2024-03-29T07:16:10.962Z,319.00
2024-03-29T07:17:11.861Z,314.00
2024-03-29T07:18:12.749Z,313.00
2024-03-29T07:19:13.626Z,313.00
2024-03-29T07:20:14.535Z,313.00
2024-03-29T07:21:15.414Z,318.00
2024-03-29T07:22:27.594Z,316.00
2024-03-29T07:23:18.106Z,317.00
2024-03-29T07:24:17.959Z,317.00
2024-03-29T07:25:18.840Z,320.00
2024-03-29T07:26:19.723Z,320.00
2024-03-29T07:27:20.605Z,319.00
2024-03-29T07:28:21.502Z,320.00
2024-03-29T07:29:22.384Z,318.00
2024-03-29T07:30:23.268Z,318.00
2024-03-29T07:31:24.149Z,319.00
2024-03-29T07:32:25.032Z,317.00
2024-03-29T07:33:25.932Z,322.00
2024-03-29T07:34:26.822Z,321.00
2024-03-29T07:35:27.699Z,322.00
2024-03-29T07:36:28.601Z,329.00
2024-03-29T07:37:29.463Z,328.00
2024-03-29T07:38:30.374Z,327.00
2024-03-29T07:39:31.242Z,325.00
2024-03-29T07:40:32.130Z,324.00
2024-03-29T07:41:33.006Z,326.00
2024-03-29T07:42:33.892Z,324.00
2024-03-29T07:43:34.791Z,322.00
2024-03-29T07:44:35.671Z,323.00
2024-03-29T07:45:36.559Z,321.00
2024-03-29T07:46:37.438Z,318.00
2024-03-29T07:47:38.318Z,318.00
2024-03-29T07:48:39.225Z,320.00
2024-03-29T07:49:40.104Z,318.00
2024-03-29T07:50:40.984Z,322.00
2024-03-29T07:51:41.887Z,323.00
2024-03-29T07:52:42.751Z,324.00
2024-03-29T07:53:43.655Z,328.00
2024-03-29T07:54:44.531Z,328.00
2024-03-29T07:56:48.202Z,334.00
2024-03-29T07:57:49.074Z,343.00
2024-03-29T07:58:49.993Z,342.00
2024-03-29T07:59:50.865Z,344.00
2024-03-29T08:00:51.752Z,349.00
2024-03-29T08:01:52.631Z,348.00
2024-03-29T08:02:53.515Z,348.00
2024-03-29T08:03:54.414Z,345.00
2024-03-29T08:04:55.296Z,343.00
2024-03-29T08:05:56.176Z,340.00
2024-03-29T08:06:57.077Z,336.00
2024-03-29T08:07:57.948Z,336.00
2024-03-29T08:08:58.844Z,331.00
2024-03-29T08:09:59.726Z,332.00
2024-03-29T08:11:00.619Z,332.00
2024-03-29T08:12:01.494Z,326.00
2024-03-29T08:13:02.373Z,320.00
2024-03-29T08:14:03.333Z,325.00
2024-03-29T08:15:04.200Z,329.00
2024-03-29T08:16:05.073Z,332.00
2024-03-29T08:17:05.990Z,330.00
2024-03-29T08:18:06.880Z,335.00
2024-03-29T08:19:07.766Z,335.00
2024-03-29T08:20:08.641Z,340.00
2024-03-29T08:21:09.523Z,342.00
2024-03-29T08:22:10.418Z,342.00
2024-03-29T08:23:11.305Z,337.00
2024-03-29T08:24:12.192Z,332.00
2024-03-29T08:25:13.072Z,332.00
2024-03-29T08:26:13.975Z,330.00
2024-03-29T08:27:14.844Z,335.00
2024-03-29T08:28:15.742Z,339.00
2024-03-29T08:29:16.636Z,335.00
2024-03-29T08:30:17.503Z,333.00
2024-03-29T08:31:18.395Z,332.00
2024-03-29T08:32:19.291Z,328.00
2024-03-29T08:33:20.191Z,330.00
2024-03-29T08:34:21.091Z,333.00
2024-03-29T08:35:21.974Z,333.00
2024-03-29T08:36:22.858Z,328.00
2024-03-29T08:37:23.753Z,325.00
2024-03-29T08:38:24.618Z,332.00
2024-03-29T08:39:25.542Z,333.00
2024-03-29T08:40:26.398Z,330.00
2024-03-29T08:41:27.282Z,332.00
2024-03-29T08:42:28.164Z,332.00
2024-03-29T08:43:29.049Z,330.00
2024-03-29T08:44:29.957Z,324.00
2024-03-29T08:45:30.825Z,320.00
2024-03-29T08:46:31.709Z,325.00
2024-03-29T08:47:32.628Z,328.00
2024-03-29T08:48:33.537Z,331.00
2024-03-29T08:49:34.388Z,340.00
2024-03-29T08:50:35.263Z,344.00
2024-03-29T08:51:36.142Z,337.00
2024-03-29T08:52:37.067Z,325.00
2024-03-29T08:53:37.910Z,322.00
2024-03-29T08:54:38.819Z,328.00
2024-03-29T08:55:39.696Z,327.00
2024-03-29T08:56:40.586Z,328.00
2024-03-29T08:57:41.459Z,324.00
2024-03-29T08:58:42.341Z,324.00
2024-03-29T08:59:43.243Z,313.00
2024-03-29T09:00:44.125Z,316.00
2024-03-29T09:01:45.006Z,329.00
2024-03-29T09:02:45.890Z,330.00
2024-03-29T09:03:46.771Z,332.00
2024-03-29T09:04:47.688Z,315.00
2024-03-29T09:05:48.550Z,326.00
2024-03-29T09:06:49.439Z,326.00
2024-03-29T09:07:52.109Z,342.00
2024-03-29T09:08:51.060Z,336.00
2024-03-29T09:09:51.963Z,334.00
2024-03-29T09:10:52.851Z,329.00
2024-03-29T09:11:53.728Z,322.00
2024-03-29T09:12:54.608Z,331.00
2024-03-29T09:13:55.489Z,318.00
2024-03-29T09:14:56.420Z,319.00
2024-03-29T09:15:57.300Z,313.00
2024-03-29T09:16:58.185Z,307.00
2024-03-29T09:17:59.100Z,313.00
2024-03-29T09:18:59.956Z,316.00
2024-03-29T09:20:00.886Z,322.00
2024-03-29T09:21:01.807Z,319.00
2024-03-29T09:22:02.687Z,323.00
2024-03-29T09:23:03.563Z,320.00
2024-03-29T09:24:04.420Z,315.00
2024-03-29T09:25:05.334Z,313.00
2024-03-29T09:26:06.209Z,318.00
2024-03-29T09:27:07.102Z,311.00
2024-03-29T09:28:07.968Z,322.00
2024-03-29T09:29:08.849Z,319.00
2024-03-29T09:30:09.750Z,315.00
2024-03-29T09:31:10.633Z,319.00
2024-03-29T09:32:11.520Z,316.00
2024-03-29T09:33:12.396Z,318.00
2024-03-29T09:34:13.285Z,311.00
2024-03-29T09:35:14.183Z,316.00
2024-03-29T09:36:15.063Z,318.00
2024-03-29T09:37:15.951Z,322.00
2024-03-29T09:38:16.877Z,319.00
2024-03-29T09:39:17.724Z,327.00
2024-03-29T09:40:18.635Z,325.00
2024-03-29T09:41:19.535Z,325.00
2024-03-29T09:42:20.386Z,322.00
2024-03-29T09:43:29.265Z,327.00
2024-03-29T09:44:23.057Z,316.00
2024-03-29T09:45:22.936Z,314.00
2024-03-29T09:46:23.818Z,319.00
2024-03-29T09:47:24.743Z,318.00
2024-03-29T09:48:25.583Z,316.00
2024-03-29T09:49:26.474Z,307.00
2024-03-29T09:50:27.364Z,315.00
2024-03-29T09:51:28.251Z,316.00
2024-03-29T09:52:29.136Z,313.00
2024-03-29T09:53:30.054Z,316.00
2024-03-29T09:54:30.898Z,320.00
2024-03-29T09:55:31.821Z,318.00
2024-03-29T09:56:32.697Z,323.00
2024-03-29T09:57:33.577Z,323.00
2024-03-29T09:58:34.460Z,325.00
2024-03-29T09:59:35.372Z,326.00
2024-03-29T10:00:36.244Z,323.00
2024-03-29T10:01:37.127Z,326.00
2024-03-29T10:02:38.020Z,326.00
2024-03-29T10:03:38.899Z,326.00
2024-03-29T10:04:39.775Z,322.00
2024-03-29T10:05:40.678Z,323.00
2024-03-29T10:06:41.568Z,319.00
2024-03-29T10:07:42.443Z,319.00
2024-03-29T10:08:43.339Z,324.00
2024-03-29T10:09:44.213Z,324.00
2024-03-29T10:10:45.111Z,323.00
2024-03-29T10:11:45.990Z,321.00
2024-03-29T10:12:46.873Z,324.00
2024-03-29T10:13:47.755Z,324.00
2024-03-29T10:14:48.639Z,325.00
2024-03-29T10:15:49.543Z,325.00
2024-03-29T10:16:50.423Z,321.00
2024-03-29T10:17:51.303Z,320.00
2024-03-29T10:18:52.187Z,319.00
2024-03-29T10:19:53.070Z,324.00
2024-03-29T10:20:53.996Z,320.00
2024-03-29T10:21:54.868Z,323.00
2024-03-29T10:22:55.748Z,326.00
2024-03-29T10:23:56.653Z,329.00
2024-03-29T10:24:57.515Z,323.00
2024-03-29T10:25:58.422Z,331.00
2024-03-29T10:26:59.297Z,329.00
2024-03-29T10:28:00.180Z,323.00
2024-03-29T10:29:01.067Z,327.00
2024-03-29T10:30:01.947Z,351.00
2024-03-29T10:31:02.850Z,337.00
2024-03-29T10:32:03.725Z,334.00
2024-03-29T10:33:09.526Z,335.00
2024-03-29T10:34:06.377Z,332.00
2024-03-29T10:35:06.254Z,331.00
2024-03-29T10:36:07.162Z,330.00
2024-03-29T10:37:08.046Z,330.00
2024-03-29T10:38:08.993Z,325.00
2024-03-29T10:39:09.888Z,329.00
2024-03-29T10:40:10.761Z,327.00
2024-03-29T10:41:11.659Z,328.00
2024-03-29T10:42:12.552Z,332.00
2024-03-29T10:43:13.429Z,331.00
2024-03-29T10:44:14.321Z,329.00
2024-03-29T10:45:15.199Z,333.00
2024-03-29T10:46:16.105Z,335.00
2024-03-29T10:47:17.205Z,336.00
2024-03-29T10:48:17.594Z,341.00
2024-03-29T10:49:18.478Z,336.00
2024-03-29T10:50:19.377Z,333.00
2024-03-29T10:51:20.257Z,336.00
2024-03-29T10:52:21.140Z,334.00
2024-03-29T10:53:22.033Z,334.00
2024-03-29T10:54:22.912Z,333.00
2024-03-29T10:55:23.790Z,338.00
2024-03-29T10:56:24.835Z,335.00
2024-03-29T10:57:25.191Z,340.00
2024-03-29T10:58:26.081Z,343.00
2024-03-29T10:59:26.952Z,339.00
2024-03-29T11:00:27.851Z,332.00
2024-03-29T11:01:28.741Z,336.00
2024-03-29T11:02:29.619Z,334.00
2024-03-29T11:03:30.499Z,335.00
2024-03-29T11:04:31.383Z,328.00
2024-03-29T11:05:32.269Z,332.00
2024-03-29T11:06:33.174Z,334.00
2024-03-29T11:07:34.061Z,332.00
2024-03-29T11:08:34.941Z,328.00
2024-03-29T11:09:35.840Z,325.00
2024-03-29T11:10:36.704Z,327.00
2024-03-29T11:11:37.648Z,330.00
2024-03-29T11:12:41.630Z,331.00
2024-03-29T11:13:39.454Z,326.00
2024-03-29T11:14:40.340Z,341.00
2024-03-29T11:15:41.221Z,330.00
2024-03-29T11:16:42.135Z,319.00
2024-03-29T11:17:43.018Z,327.00
2024-03-29T11:18:43.904Z,337.00
2024-03-29T11:19:44.783Z,330.00
2024-03-29T11:20:45.694Z,330.00
2024-03-29T11:21:46.596Z,331.00
2024-03-29T11:22:47.476Z,329.00
2024-03-29T11:23:48.360Z,329.00
2024-03-29T11:24:49.263Z,328.00
2024-03-29T11:25:50.124Z,326.00
2024-03-29T11:26:51.027Z,324.00
2024-03-29T11:27:51.908Z,326.00
2024-03-29T11:28:52.791Z,325.00
2024-03-29T11:29:53.673Z,328.00
2024-03-29T11:30:54.556Z,332.00
2024-03-29T11:31:55.459Z,347.00
2024-03-29T11:32:56.344Z,318.00
2024-03-29T11:33:57.239Z,323.00
2024-03-29T11:34:58.109Z,321.00
2024-03-29T11:35:58.987Z,326.00
2024-03-29T11:36:59.895Z,330.00
2024-03-29T11:38:00.783Z,326.00
2024-03-29T11:39:01.655Z,329.00
2024-03-29T11:40:02.553Z,346.00
2024-03-29T11:41:03.419Z,316.00
2024-03-29T11:42:06.715Z,326.00
2024-03-29T11:43:05.127Z,331.00
2024-03-29T11:44:06.013Z,326.00
2024-03-29T11:45:06.894Z,330.00
2024-03-29T11:46:07.772Z,329.00
2024-03-29T11:47:08.703Z,326.00
2024-03-29T11:48:09.593Z,323.00
2024-03-29T11:49:10.453Z,301.00
2024-03-29T11:50:11.335Z,317.00
2024-03-29T11:51:12.226Z,321.00
2024-03-29T11:52:13.122Z,321.00
2024-03-29T11:53:13.999Z,322.00
2024-03-29T11:54:14.923Z,325.00
2024-03-29T11:55:15.772Z,323.00
2024-03-29T11:56:16.667Z,321.00
2024-03-29T11:57:17.543Z,326.00
2024-03-29T11:58:18.428Z,318.00
2024-03-29T11:59:19.315Z,321.00
2024-03-29T12:00:20.197Z,321.00
2024-03-29T12:01:21.078Z,305.00
2024-03-29T12:02:22.012Z,324.00
2024-03-29T12:03:22.871Z,326.00
2024-03-29T12:04:23.749Z,331.00
2024-03-29T12:05:24.527Z,316.00
2024-03-29T12:06:25.408Z,307.00
2024-03-29T12:07:26.322Z,318.00
2024-03-29T12:08:27.188Z,333.00
2024-03-29T12:09:28.066Z,304.00
2024-03-29T12:10:28.969Z,324.00
2024-03-29T12:11:29.850Z,357.00
2024-03-29T12:12:30.736Z,327.00
2024-03-29T12:13:31.620Z,302.00
2024-03-29T12:14:32.500Z,317.00
2024-03-29T12:15:33.402Z,312.00
2024-03-29T12:16:34.287Z,308.00
2024-03-29T12:17:35.204Z,329.00
2024-03-29T12:18:36.056Z,326.00
2024-03-29T12:19:36.933Z,322.00
2024-03-29T12:20:37.947Z,377.00
2024-03-29T12:21:38.345Z,317.00
2024-03-29T12:22:39.211Z,321.00
2024-03-29T12:23:40.106Z,319.00
2024-03-29T12:24:40.976Z,314.00
2024-03-29T12:25:41.929Z,315.00
2024-03-29T12:26:42.783Z,325.00
2024-03-29T12:27:43.680Z,328.00
2024-03-29T12:28:44.552Z,324.00
2024-03-29T12:29:45.436Z,318.00
2024-03-29T12:30:46.336Z,318.00
2024-03-29T12:31:47.218Z,325.00
2024-03-29T12:32:48.103Z,322.00
2024-03-29T12:33:48.980Z,321.00
2024-03-29T12:34:49.860Z,318.00
2024-03-29T12:35:50.762Z,320.00
2024-03-29T12:36:51.643Z,324.00
2024-03-29T12:37:52.525Z,321.00
2024-03-29T12:38:53.407Z,323.00
2024-03-29T12:39:54.296Z,318.00
2024-03-29T12:40:55.205Z,315.00
2024-03-29T12:41:56.072Z,315.00
2024-03-29T12:42:56.956Z,314.00
2024-03-29T12:43:57.830Z,317.00